Jacksonville, FL (32228)

4:55 AM EST on January 24, 2017 (GMT -0500)
Atlantic Beach/Mayport | | Change Station
Active Advisory: Small Craft Advisory Active Notice: Public Information Statement

Elev 13 ft 30.37 °N, 81.41 °W | Updated 12 seconds ago

Clear
Clear
56.1 °F
Feels Like 56.1 °F
N
1.0
Wind Variable Wind from NW
Gusts 9.0 mph

Today
High -- | Low -- °F
--% Chance of Precip.
Yesterday
High -- | Low -- °F
Precip. -- in
Pressure 29.73 in
Visibility 10.0 miles
Clouds Clear
Dew Point 51 °F
Humidity 84%
Rainfall 0.00 in
Snow Depth Not available.
7:20 AM 5:55 PM
Waning Crescent, 12% visible
METAR KNRB 240952Z AUTO 27012G17KT 10SM CLR 13/09 A2973 RMK AO2 SLP068 T01330089
Pressure 29.73 in
Visibility 10.0 miles
Clouds Clear
Dew Point 51 °F
Humidity 84%
Rainfall 0.00 in
Snow Depth Not available.
7:20 AM 5:55 PM
Waning Crescent, 12% visible
METAR KNRB 240952Z AUTO 27012G17KT 10SM CLR 13/09 A2973 RMK AO2 SLP068 T01330089

Get Your Daily Forecast Email!

Thanks for signing up!

Be on the lookout for a verification email in your inbox.

You'll start receiving the daily forecast at 8 AM.

×

10-Day Weather Forecast

Almanac

Astronomy

Jan. 24, 2017 Rise Set
Actual Time
Civil Twilight
Nautical Twilight
Astronomical Twilight
Moon
Length of Visible Light
Length of Day
Tomorrow will be .
, % of the Moon is Illuminated

Today's Extremes

State Highs State Lows

Community

WunderPhotos

Upload Photos

1,962,540 photos uploaded!

WunderBlog® & News

Nearby

Air Quality

  Air Quality AQ Index Pollutant
Not available.

Snow Depth

Station Depth Elevation

Earthquake Activity

City Distance Mag. Time & Date
Minimum magnitude displayed is 2.5.

Coastal Water Temperatures

Place Temperature

Stations

Nearby Weather Stations

Station Location Temp. Windchill Dew Point Humidity Wind Precip. Elev Updated Type
                   

Watches & Warnings

Small Craft Advisory
Issued: 1:57 AM EST Jan. 24, 2017 – National Weather Service

... Small Craft Advisory now in effect until 10 am EST this morning...

* winds... west northwest 25 knots with occasional gusts to gale
force this morning decreasing to 15 to 20 knots this afternoon.

* Seas... 4 to 6 feet with occasional seas up to 8 feet subsiding
to 2 to 4 feet this afternoon.

Precautionary/preparedness actions...

A Small Craft Advisory means that wind speeds of 20 to 33 knots...
and/or seas 7 feet or higher... are expected to produce
hazardous conditions for small craft. Inexperienced boaters...
especially those operating smaller vessels should avoid
navigating in these conditions.